createdAt,value
2023-03-29T00:00:36.551Z,34.40
2023-03-29T00:03:05.406Z,35.83
2023-03-29T00:05:35.593Z,34.77
2023-03-29T00:08:05.087Z,34.90
2023-03-29T00:10:34.198Z,33.73
2023-03-29T00:13:02.777Z,32.70
2023-03-29T00:15:31.384Z,33.47
2023-03-29T00:17:59.761Z,33.80
2023-03-29T00:20:28.924Z,33.40
2023-03-29T00:22:57.172Z,33.47
2023-03-29T00:25:26.721Z,32.10
2023-03-29T00:27:54.790Z,31.67
2023-03-29T00:30:22.932Z,31.50
2023-03-29T00:32:51.411Z,30.60
2023-03-29T00:35:19.965Z,30.97
2023-03-29T00:37:51.044Z,29.07
2023-03-29T00:40:19.320Z,28.50
2023-03-29T00:42:48.804Z,27.47
2023-03-29T00:45:22.681Z,25.97
2023-03-29T00:47:53.085Z,26.37
2023-03-29T00:50:25.903Z,25.70
2023-03-29T00:53:00.904Z,24.77
2023-03-29T00:55:33.552Z,24.90
2023-03-29T00:58:05.517Z,24.10
2023-03-29T01:00:38.333Z,24.87
2023-03-29T01:03:13.549Z,24.80
2023-03-29T01:05:45.666Z,25.10
2023-03-29T01:08:18.337Z,24.80
2023-03-29T01:10:51.837Z,24.20
2023-03-29T01:13:27.315Z,24.20
2023-03-29T01:15:58.137Z,24.47
2023-03-29T01:18:26.333Z,23.90
2023-03-29T01:21:10.357Z,23.73
2023-03-29T01:23:58.315Z,23.80
2023-03-29T01:26:35.973Z,23.80
2023-03-29T01:29:10.745Z,24.03
2023-03-29T01:31:43.386Z,24.10
2023-03-29T01:34:13.982Z,23.90
2023-03-29T01:36:49.416Z,24.37
2023-03-29T01:39:19.277Z,24.33
2023-03-29T01:41:53.739Z,26.80
2023-03-29T01:44:30.771Z,24.93
2023-03-29T01:47:09.645Z,25.30
2023-03-29T01:49:42.449Z,25.27
2023-03-29T01:52:16.454Z,25.90
2023-03-29T01:54:48.875Z,25.67
2023-03-29T01:57:17.826Z,26.30
2023-03-29T01:59:49.015Z,26.00
2023-03-29T02:02:18.657Z,27.60
2023-03-29T02:04:51.769Z,27.50
2023-03-29T02:07:25.195Z,26.83
2023-03-29T02:09:55.644Z,27.43
2023-03-29T02:12:23.921Z,27.97
2023-03-29T02:14:53.978Z,28.47
2023-03-29T02:17:24.360Z,28.90
2023-03-29T02:19:59.412Z,29.43
2023-03-29T02:22:31.591Z,29.87
2023-03-29T02:25:03.689Z,30.33
2023-03-29T02:27:31.993Z,30.07
2023-03-29T02:30:01.756Z,30.70
2023-03-29T02:32:34.990Z,30.40
2023-03-29T02:35:08.696Z,30.40
2023-03-29T02:37:41.046Z,30.37
2023-03-29T02:40:12.610Z,31.23
2023-03-29T02:42:41.519Z,30.17
2023-03-29T02:45:13.866Z,31.10
2023-03-29T02:47:45.635Z,30.30
2023-03-29T02:50:14.298Z,31.07
2023-03-29T02:52:47.187Z,30.67
2023-03-29T02:55:18.834Z,31.33
2023-03-29T02:57:46.988Z,30.50
2023-03-29T03:00:18.818Z,29.63
2023-03-29T03:02:48.608Z,29.60
2023-03-29T03:05:17.526Z,29.83
2023-03-29T03:07:46.194Z,29.60
2023-03-29T03:10:14.607Z,29.43
2023-03-29T03:12:42.750Z,28.20
2023-03-29T03:15:11.459Z,26.47
2023-03-29T03:17:40.979Z,27.03
2023-03-29T03:20:13.067Z,27.67
2023-03-29T03:22:42.453Z,27.53
2023-03-29T03:25:13.933Z,27.10
2023-03-29T03:27:42.117Z,27.30
2023-03-29T03:30:11.868Z,25.77
2023-03-29T03:32:41.490Z,25.87
2023-03-29T03:35:11.654Z,25.97
2023-03-29T03:37:40.151Z,26.27
2023-03-29T03:40:09.937Z,26.73
2023-03-29T03:42:38.138Z,26.60
2023-03-29T03:45:08.288Z,26.60
2023-03-29T03:47:38.490Z,25.73
2023-03-29T03:50:09.673Z,26.00
2023-03-29T03:52:37.750Z,26.00
2023-03-29T03:55:06.612Z,26.00
2023-03-29T03:57:37.496Z,27.50
2023-03-29T04:00:19.187Z,27.27
2023-03-29T04:02:48.754Z,27.57
2023-03-29T04:05:20.017Z,27.40
2023-03-29T04:07:48.223Z,27.87
2023-03-29T04:10:16.452Z,27.83
2023-03-29T04:12:45.034Z,25.93
2023-03-29T04:15:13.458Z,27.67
2023-03-29T04:17:41.671Z,25.90
2023-03-29T04:20:12.686Z,26.97
2023-03-29T04:22:42.445Z,26.47
2023-03-29T04:25:11.780Z,26.53
2023-03-29T04:27:40.735Z,25.57
2023-03-29T04:30:09.850Z,25.83
2023-03-29T04:32:37.992Z,25.90
2023-03-29T04:35:06.965Z,25.23
2023-03-29T04:37:35.306Z,25.77
2023-03-29T04:40:09.203Z,25.73
2023-03-29T04:42:37.713Z,26.80
2023-03-29T04:45:07.314Z,26.00
2023-03-29T04:47:36.650Z,25.90
2023-03-29T04:50:05.559Z,26.13
2023-03-29T04:52:33.579Z,25.97
2023-03-29T04:55:02.337Z,26.13
2023-03-29T04:57:32.281Z,27.77
2023-03-29T05:00:00.481Z,27.00
2023-03-29T05:02:31.105Z,27.47
2023-03-29T05:04:59.254Z,28.13
2023-03-29T05:07:27.908Z,28.23
2023-03-29T05:09:56.103Z,27.57
2023-03-29T05:12:24.314Z,24.50
2023-03-29T05:14:54.112Z,25.17
2023-03-29T05:17:22.580Z,25.20
2023-03-29T05:19:50.811Z,24.90
2023-03-29T05:22:18.854Z,24.77
2023-03-29T05:24:47.047Z,25.37
2023-03-29T05:27:15.089Z,25.27
2023-03-29T05:29:44.596Z,25.27
2023-03-29T05:32:15.014Z,24.60
2023-03-29T05:34:43.407Z,25.43
2023-03-29T05:37:11.675Z,25.00
2023-03-29T05:39:39.881Z,24.50
2023-03-29T05:42:07.943Z,25.03
2023-03-29T05:44:36.437Z,25.27
2023-03-29T05:47:04.691Z,24.80
2023-03-29T05:49:34.360Z,23.53
2023-03-29T05:52:02.510Z,23.40
2023-03-29T05:54:31.153Z,24.20
2023-03-29T05:56:59.355Z,24.40
2023-03-29T05:59:29.714Z,25.00
2023-03-29T06:02:00.346Z,24.60
2023-03-29T06:04:29.013Z,25.77
2023-03-29T06:07:00.351Z,24.10
2023-03-29T06:09:28.684Z,25.47
2023-03-29T06:11:58.912Z,25.03
2023-03-29T06:14:27.737Z,25.87
2023-03-29T06:16:56.709Z,25.60
2023-03-29T06:19:24.990Z,25.53
2023-03-29T06:21:53.778Z,25.23
2023-03-29T06:24:25.163Z,26.10
2023-03-29T06:26:53.725Z,25.77
2023-03-29T06:29:31.090Z,28.50
2023-03-29T06:31:59.127Z,28.60
2023-03-29T06:34:27.217Z,26.77
2023-03-29T06:36:55.233Z,28.17
2023-03-29T06:39:26.366Z,29.30
2023-03-29T06:41:55.479Z,29.70
2023-03-29T06:44:23.759Z,30.00
2023-03-29T06:46:51.792Z,29.10
2023-03-29T06:49:19.984Z,30.00
2023-03-29T06:51:48.734Z,30.17
2023-03-29T06:54:17.022Z,29.47
2023-03-29T06:56:47.438Z,31.20
2023-03-29T06:59:15.456Z,29.47
2023-03-29T07:01:45.084Z,30.63
2023-03-29T07:04:13.925Z,28.43
2023-03-29T07:06:48.308Z,26.90
2023-03-29T07:09:19.379Z,25.97
2023-03-29T07:11:50.384Z,26.70
2023-03-29T07:14:18.786Z,25.80
2023-03-29T07:16:47.386Z,24.80
2023-03-29T07:19:15.515Z,23.50
2023-03-29T07:21:43.671Z,23.60
2023-03-29T07:24:11.646Z,24.00
2023-03-29T07:26:46.349Z,22.37
2023-03-29T07:29:22.881Z,22.17
2023-03-29T07:31:51.263Z,22.23
2023-03-29T07:34:19.279Z,21.30
2023-03-29T07:36:47.802Z,21.30
2023-03-29T07:39:16.032Z,22.00
2023-03-29T07:41:44.018Z,21.10
2023-03-29T07:44:12.094Z,20.97
2023-03-29T07:46:42.828Z,21.07
2023-03-29T07:49:10.882Z,21.40
2023-03-29T07:51:38.819Z,21.17
2023-03-29T07:54:07.853Z,21.90
2023-03-29T07:56:36.102Z,21.20
2023-03-29T07:59:04.125Z,21.40
2023-03-29T08:01:32.203Z,20.90
2023-03-29T08:04:01.852Z,21.27
2023-03-29T08:06:29.938Z,20.50
2023-03-29T08:08:58.408Z,21.93
2023-03-29T08:11:26.346Z,21.23
2023-03-29T08:13:54.348Z,21.60
2023-03-29T08:16:22.399Z,20.80
2023-03-29T08:18:50.364Z,20.20
2023-03-29T08:21:19.744Z,20.63
2023-03-29T08:23:47.784Z,20.20
2023-03-29T08:26:16.129Z,21.50
2023-03-29T08:28:44.283Z,20.47
2023-03-29T08:31:12.846Z,21.00
2023-03-29T08:33:42.336Z,20.97
2023-03-29T08:36:10.946Z,20.67
2023-03-29T08:38:40.928Z,22.07
2023-03-29T08:41:28.324Z,21.17
2023-03-29T08:44:13.750Z,22.13
2023-03-29T08:46:49.775Z,21.47
2023-03-29T08:49:19.888Z,22.23
2023-03-29T08:51:51.321Z,21.93
2023-03-29T08:54:26.904Z,22.07
2023-03-29T08:56:59.621Z,21.47
2023-03-29T08:59:30.721Z,21.60
2023-03-29T09:02:01.440Z,22.07
2023-03-29T09:04:32.287Z,21.93
2023-03-29T09:07:00.693Z,22.03
2023-03-29T09:09:33.302Z,22.17
2023-03-29T09:12:13.059Z,21.60
2023-03-29T09:14:57.224Z,21.90
2023-03-29T09:17:40.060Z,22.17
2023-03-29T09:20:20.514Z,21.40
2023-03-29T09:22:57.964Z,21.57
2023-03-29T09:25:47.061Z,21.27
2023-03-29T09:28:27.090Z,21.00
2023-03-29T09:31:00.974Z,20.53
2023-03-29T09:33:37.265Z,20.30
2023-03-29T09:36:12.312Z,20.20
2023-03-29T09:38:43.535Z,20.33
2023-03-29T09:41:24.853Z,19.90
2023-03-29T09:43:55.692Z,21.37
2023-03-29T09:46:28.428Z,19.77
2023-03-29T09:48:58.151Z,20.10
2023-03-29T09:51:29.742Z,19.37
2023-03-29T09:54:00.485Z,20.30
2023-03-29T09:56:30.619Z,20.50
2023-03-29T09:58:58.961Z,19.50
2023-03-29T10:01:37.901Z,19.20
2023-03-29T10:04:09.320Z,20.03
2023-03-29T10:06:38.889Z,19.40
2023-03-29T10:09:17.450Z,19.73
2023-03-29T10:11:50.554Z,20.30
2023-03-29T10:14:20.894Z,19.63
2023-03-29T10:16:57.506Z,19.27
2023-03-29T10:19:30.317Z,20.00
2023-03-29T10:22:01.679Z,19.53
2023-03-29T10:24:30.427Z,19.67
2023-03-29T10:27:03.480Z,20.10
2023-03-29T10:29:37.959Z,20.70
2023-03-29T10:32:16.184Z,20.40
2023-03-29T10:34:46.528Z,20.30
2023-03-29T10:37:19.080Z,20.33
2023-03-29T10:39:49.724Z,21.80
2023-03-29T10:42:24.083Z,20.87
2023-03-29T10:44:57.364Z,20.10
2023-03-29T10:47:26.549Z,19.80
2023-03-29T10:49:57.408Z,19.90
2023-03-29T10:52:26.210Z,20.07
2023-03-29T10:54:56.968Z,21.67
2023-03-29T10:57:35.158Z,21.50
2023-03-29T11:00:08.278Z,20.37
2023-03-29T11:03:05.925Z,20.67
2023-03-29T11:05:40.055Z,19.83
2023-03-29T11:08:26.747Z,23.30
2023-03-29T11:11:04.194Z,21.10
2023-03-29T11:13:42.983Z,20.57
2023-03-29T11:16:21.704Z,20.33
2023-03-29T11:19:11.075Z,20.70
2023-03-29T11:21:46.888Z,20.43
2023-03-29T11:24:28.745Z,20.80
2023-03-29T11:27:27.434Z,21.20
2023-03-29T11:30:08.909Z,19.93
2023-03-29T11:32:47.430Z,21.20
2023-03-29T11:35:29.348Z,20.87
2023-03-29T11:38:01.943Z,20.47
2023-03-29T11:40:43.397Z,21.20
2023-03-29T11:43:15.499Z,20.73
2023-03-29T11:45:52.578Z,20.83
2023-03-29T11:48:25.393Z,20.40
2023-03-29T11:50:59.527Z,20.70
2023-03-29T11:53:32.532Z,20.90
2023-03-29T11:56:10.515Z,20.80
2023-03-29T11:58:42.933Z,20.33
2023-03-29T12:01:17.840Z,22.93
2023-03-29T12:03:51.701Z,20.30
2023-03-29T12:06:23.592Z,20.70
2023-03-29T12:08:55.974Z,20.80
2023-03-29T12:11:30.645Z,21.83
2023-03-29T12:14:04.574Z,21.80
2023-03-29T12:16:39.340Z,20.20
2023-03-29T12:19:18.532Z,21.37
2023-03-29T12:21:48.150Z,22.07
2023-03-29T12:24:19.079Z,23.33
2023-03-29T12:27:20.519Z,21.20
2023-03-29T12:30:21.048Z,22.37
2023-03-29T12:33:10.418Z,21.40
2023-03-29T12:35:48.632Z,21.47
2023-03-29T12:38:21.757Z,22.30
2023-03-29T12:40:56.809Z,21.60
2023-03-29T12:43:29.163Z,21.83
2023-03-29T12:46:03.834Z,21.50
2023-03-29T12:48:35.801Z,20.73
2023-03-29T12:51:08.240Z,20.67
2023-03-29T12:53:40.895Z,22.23
2023-03-29T12:56:18.321Z,21.50
2023-03-29T12:59:18.711Z,20.63
2023-03-29T13:02:00.328Z,21.70
2023-03-29T13:04:51.383Z,20.77
2023-03-29T13:07:31.171Z,21.20
2023-03-29T13:10:01.488Z,21.20
2023-03-29T13:12:33.593Z,21.97
2023-03-29T13:15:03.890Z,22.00
2023-03-29T13:17:43.316Z,21.50
2023-03-29T13:20:30.695Z,21.00
2023-03-29T13:23:10.518Z,20.93
2023-03-29T13:25:52.551Z,20.83
2023-03-29T13:28:36.631Z,20.60
2023-03-29T13:31:14.024Z,20.77
2023-03-29T13:34:00.591Z,19.37
2023-03-29T13:36:52.288Z,20.63
2023-03-29T13:39:24.026Z,20.23
2023-03-29T13:41:54.265Z,20.03
2023-03-29T13:44:30.236Z,19.60
2023-03-29T13:47:17.427Z,20.00
2023-03-29T13:49:53.474Z,20.43
2023-03-29T13:52:27.325Z,19.90
2023-03-29T13:55:00.711Z,19.57
2023-03-29T13:57:36.011Z,19.70
2023-03-29T14:00:17.871Z,19.40
2023-03-29T14:02:50.360Z,19.70
2023-03-29T14:05:22.180Z,19.40
2023-03-29T14:07:54.397Z,19.97
2023-03-29T14:10:26.816Z,19.83
2023-03-29T14:12:57.419Z,20.30
2023-03-29T14:15:28.665Z,19.03
2023-03-29T14:18:00.348Z,19.10
2023-03-29T14:20:29.704Z,18.50
2023-03-29T14:22:59.731Z,18.43
2023-03-29T14:25:30.417Z,19.00
2023-03-29T14:27:58.646Z,18.50
2023-03-29T14:30:29.434Z,18.93
2023-03-29T14:32:57.685Z,19.27
2023-03-29T14:35:32.323Z,18.37
2023-03-29T14:38:02.526Z,18.23
2023-03-29T14:40:32.122Z,18.37
2023-03-29T14:43:05.628Z,19.10
2023-03-29T14:45:33.929Z,18.10
2023-03-29T14:48:02.466Z,19.03
2023-03-29T14:50:31.600Z,18.63
2023-03-29T14:53:02.554Z,18.60
2023-03-29T14:55:31.025Z,19.40
2023-03-29T14:58:00.224Z,19.40
2023-03-29T15:00:31.459Z,19.70
2023-03-29T15:03:01.761Z,19.20
2023-03-29T15:05:35.676Z,19.90
2023-03-29T15:08:07.362Z,19.10
2023-03-29T15:10:37.745Z,19.13
2023-03-29T15:13:07.750Z,19.53
2023-03-29T15:15:39.156Z,19.60
2023-03-29T15:18:09.145Z,19.00
2023-03-29T15:20:39.989Z,19.40
2023-03-29T15:23:22.654Z,19.00
2023-03-29T15:25:54.957Z,19.10
2023-03-29T15:28:28.978Z,18.77
2023-03-29T15:33:35.870Z,18.67
2023-03-29T15:36:05.720Z,18.30
2023-03-29T15:38:43.030Z,19.07
2023-03-29T15:41:11.903Z,18.90
2023-03-29T15:43:40.103Z,18.60
2023-03-29T15:46:08.621Z,19.03
2023-03-29T15:48:37.402Z,19.43
2023-03-29T15:51:06.920Z,18.80
2023-03-29T15:53:36.696Z,19.80
2023-03-29T15:56:08.035Z,19.23
2023-03-29T15:58:37.958Z,19.63
2023-03-29T16:01:16.020Z,18.93
2023-03-29T16:03:47.622Z,19.10
2023-03-29T16:06:17.608Z,18.60
2023-03-29T16:08:50.624Z,18.70
2023-03-29T16:11:18.807Z,18.07
2023-03-29T16:13:47.021Z,18.27
2023-03-29T16:16:15.135Z,18.60
2023-03-29T16:18:43.568Z,18.60
2023-03-29T16:21:14.811Z,19.20
2023-03-29T16:23:43.980Z,19.40
2023-03-29T16:26:16.041Z,20.00
2023-03-29T16:28:44.625Z,20.40
2023-03-29T16:31:13.816Z,20.80
2023-03-29T16:33:42.490Z,21.27
2023-03-29T16:36:11.128Z,21.33
2023-03-29T16:38:39.236Z,22.63
2023-03-29T16:41:08.089Z,21.00
2023-03-29T16:43:38.759Z,21.40
2023-03-29T16:46:08.931Z,21.10
2023-03-29T16:48:37.343Z,21.05
2023-03-29T16:51:06.232Z,20.53
2023-03-29T16:53:34.715Z,20.70
2023-03-29T16:56:03.306Z,20.93
2023-03-29T16:58:31.459Z,22.37
2023-03-29T17:01:09.668Z,21.43
2023-03-29T17:03:37.991Z,22.00
2023-03-29T17:06:07.621Z,22.20
2023-03-29T17:08:35.932Z,23.10
2023-03-29T17:11:04.305Z,23.43
2023-03-29T17:13:32.447Z,22.50
2023-03-29T17:16:02.532Z,21.27
2023-03-29T17:18:30.942Z,21.33
2023-03-29T17:21:00.044Z,21.60
2023-03-29T17:23:28.187Z,21.70
2023-03-29T17:25:56.630Z,21.00
2023-03-29T17:28:25.093Z,22.17
2023-03-29T17:30:53.444Z,21.53
2023-03-29T17:33:26.298Z,21.63
2023-03-29T17:35:54.486Z,20.97
2023-03-29T17:38:22.845Z,21.47
2023-03-29T17:40:54.708Z,21.20
2023-03-29T17:43:23.050Z,20.90
2023-03-29T17:45:55.592Z,21.23
2023-03-29T17:48:25.839Z,20.77
2023-03-29T17:50:56.580Z,20.37
2023-03-29T17:53:25.077Z,21.17
2023-03-29T17:55:53.358Z,21.30
2023-03-29T17:58:21.694Z,21.43
2023-03-29T18:00:50.030Z,21.97
2023-03-29T18:03:18.534Z,22.77
2023-03-29T18:05:48.112Z,24.25
2023-03-29T18:08:16.884Z,23.40
2023-03-29T18:10:45.150Z,23.83
2023-03-29T18:13:14.705Z,24.60
2023-03-29T18:15:44.096Z,25.33
2023-03-29T18:18:12.361Z,27.37
2023-03-29T18:20:40.673Z,25.40
2023-03-29T18:23:10.359Z,24.97
2023-03-29T18:25:38.757Z,24.70
2023-03-29T18:28:07.105Z,27.17
2023-03-29T18:30:36.266Z,28.40
2023-03-29T18:33:04.592Z,29.27
2023-03-29T18:35:32.825Z,28.37
2023-03-29T18:38:01.420Z,30.30
2023-03-29T18:40:31.178Z,31.50
2023-03-29T18:42:59.334Z,31.53
2023-03-29T18:45:28.779Z,31.73
2023-03-29T18:47:57.132Z,33.40
2023-03-29T18:50:25.473Z,34.63
2023-03-29T18:52:53.950Z,35.37
2023-03-29T18:55:22.195Z,36.73
2023-03-29T18:57:51.622Z,36.40
2023-03-29T19:00:20.442Z,37.60
2023-03-29T19:02:48.979Z,37.43
2023-03-29T19:05:17.415Z,38.47
2023-03-29T19:07:45.655Z,38.17
2023-03-29T19:10:14.223Z,38.63
2023-03-29T19:12:42.440Z,39.27
2023-03-29T19:15:13.778Z,38.57
2023-03-29T19:17:42.012Z,38.77
2023-03-29T19:20:12.005Z,40.90
2023-03-29T19:22:41.064Z,42.07
2023-03-29T19:25:10.549Z,42.10
2023-03-29T19:27:38.981Z,44.13
2023-03-29T19:30:09.207Z,45.27
2023-03-29T19:32:38.975Z,46.27
2023-03-29T19:35:08.201Z,51.33
2023-03-29T19:37:36.492Z,47.63
2023-03-29T19:40:06.652Z,48.50
2023-03-29T19:42:35.807Z,51.37
2023-03-29T19:45:04.996Z,53.20
2023-03-29T19:47:33.222Z,55.07
2023-03-29T19:50:04.311Z,57.47
2023-03-29T19:52:32.866Z,57.60
2023-03-29T19:55:01.403Z,58.80
2023-03-29T19:57:30.809Z,57.37
2023-03-29T19:59:59.170Z,58.57
2023-03-29T20:02:27.449Z,59.43
2023-03-29T20:04:57.686Z,60.17
2023-03-29T20:07:27.310Z,59.40
2023-03-29T20:09:55.735Z,61.87
2023-03-29T20:12:23.894Z,61.73
2023-03-29T20:14:52.030Z,63.90
2023-03-29T20:17:20.186Z,61.87
2023-03-29T20:19:48.278Z,65.17
2023-03-29T20:22:16.387Z,64.23
2023-03-29T20:24:46.152Z,67.53
2023-03-29T20:27:15.818Z,68.73
2023-03-29T20:29:43.942Z,68.17
2023-03-29T20:32:12.341Z,67.07
2023-03-29T20:34:40.870Z,65.13
2023-03-29T20:37:09.115Z,66.23
2023-03-29T20:39:37.275Z,64.30
2023-03-29T20:42:07.402Z,65.90
2023-03-29T20:44:35.624Z,65.83
2023-03-29T20:47:04.999Z,66.40
2023-03-29T20:49:37.300Z,65.53
2023-03-29T20:52:08.404Z,64.63
2023-03-29T20:54:37.522Z,67.57
2023-03-29T20:57:07.871Z,64.73
2023-03-29T20:59:37.984Z,68.00
2023-03-29T21:02:06.416Z,62.13
2023-03-29T21:04:35.059Z,65.70
2023-03-29T21:07:05.040Z,68.83
2023-03-29T21:09:34.171Z,62.57
2023-03-29T21:12:02.840Z,61.17
2023-03-29T21:14:33.128Z,62.83
2023-03-29T21:17:01.461Z,63.83
2023-03-29T21:19:29.726Z,63.90
2023-03-29T21:21:58.157Z,64.20
2023-03-29T21:24:26.420Z,61.07
2023-03-29T21:26:54.753Z,62.60
2023-03-29T21:29:22.964Z,64.23
2023-03-29T21:31:52.484Z,63.00
2023-03-29T21:34:20.671Z,63.70
2023-03-29T21:36:48.895Z,64.30
2023-03-29T21:39:16.994Z,64.53
2023-03-29T21:41:45.141Z,64.50
2023-03-29T21:44:13.279Z,65.90
2023-03-29T21:46:41.491Z,65.60
2023-03-29T21:49:12.047Z,65.30
2023-03-29T21:51:39.998Z,64.23
2023-03-29T21:54:08.339Z,62.70
2023-03-29T21:56:36.607Z,62.60
2023-03-29T21:59:05.408Z,58.83
2023-03-29T22:01:33.536Z,57.40
2023-03-29T22:04:01.842Z,56.93
2023-03-29T22:06:31.541Z,56.23
2023-03-29T22:09:00.755Z,54.93
2023-03-29T22:11:29.586Z,54.30
2023-03-29T22:13:58.219Z,51.40
2023-03-29T22:16:28.352Z,49.63
2023-03-29T22:18:56.501Z,49.23
2023-03-29T22:21:26.796Z,47.30
2023-03-29T22:23:57.655Z,44.90
2023-03-29T22:26:28.281Z,44.17
2023-03-29T22:28:57.137Z,44.73
2023-03-29T22:31:27.072Z,40.27
2023-03-29T22:33:55.644Z,42.50
2023-03-29T22:36:25.493Z,40.57
2023-03-29T22:38:54.036Z,37.60
2023-03-29T22:41:24.851Z,37.87
2023-03-29T22:43:53.575Z,35.70
2023-03-29T22:46:22.388Z,36.13
2023-03-29T22:48:51.100Z,36.83
2023-03-29T22:51:19.576Z,35.23
2023-03-29T22:53:47.668Z,33.77
2023-03-29T22:56:16.384Z,33.43
2023-03-29T22:58:46.012Z,31.60
2023-03-29T23:01:14.593Z,32.70
2023-03-29T23:03:42.693Z,32.87
2023-03-29T23:06:11.062Z,31.60
2023-03-29T23:08:39.387Z,32.27
2023-03-29T23:11:08.132Z,31.60
2023-03-29T23:13:36.281Z,29.57
2023-03-29T23:16:06.411Z,30.00
2023-03-29T23:18:37.392Z,30.00
2023-03-29T23:21:07.588Z,30.43
2023-03-29T23:23:36.843Z,30.23
2023-03-29T23:26:05.569Z,30.37
2023-03-29T23:28:34.552Z,29.90
2023-03-29T23:31:06.564Z,29.57
2023-03-29T23:33:36.215Z,28.27
2023-03-29T23:36:07.628Z,27.03
2023-03-29T23:38:38.647Z,26.80
2023-03-29T23:41:08.522Z,30.23
2023-03-29T23:43:40.591Z,26.40
2023-03-29T23:46:13.125Z,26.77
2023-03-29T23:48:44.608Z,26.10
2023-03-29T23:51:13.234Z,26.77
2023-03-29T23:53:41.311Z,25.70
2023-03-29T23:56:09.491Z,25.03
2023-03-29T23:58:39.044Z,24.50
